SBSV/SSA METAR and TAF weather

Enter ICAO airport designator
Station Type Date Time Source
SBSV METAR 2020/01/24 03:00 UTC NOAA

SBSV 240300Z 36005KT 9999 SCT017 FEW020TCU BKN100 25/20 Q1012


Station Type Date Time Source
SBSV Decoded METAR 2020/01/24 03:00 UTC NOAA

Salvador Aeroporto , Brazil (SBSV) 12-54S 038-20W 13M
Jan 23, 2020 - 10:00 PM EST / 2020.01.24 0300 UTC
Wind: from the N (360 degrees) at 6 MPH (5 KT):0
Visibility: greater than 7 mile(s):0
Sky conditions: mostly cloudy
Weather: Towering cumulus clouds observed
Temperature: 77 F (25 C)
Dew Point: 68 F (20 C)
Relative Humidity: 73%
Pressure (altimeter): 29.88 in. Hg (1012 hPa)
ob: SBSV 240300Z 36005KT 9999 SCT017 FEW020TCU BKN100 25/20 Q1012
cycle: 3

Station Type Date Time Source
SBSV TAF 2020/01/24 00:00 UTC NOAA

TAF SBSV 232200Z 2400/2424 06008KT 8000 SHRA SCT012 SCT020 FEW020TCU TN25/2408Z TX27/2417Z
BECMG 2413/2415 10008KT SCT009 BKN015 FEW023TCU
RMK PAY

Example: see airport list